createdAt,value
2018-09-09T00:01:47.383Z,12.97
2018-09-09T00:04:16.628Z,11.90
2018-09-09T00:06:45.855Z,12.07
2018-09-09T00:09:19.346Z,12.13
2018-09-09T00:11:48.564Z,12.60
2018-09-09T00:14:18.055Z,12.47
2018-09-09T00:16:46.919Z,12.30
2018-09-09T00:19:16.088Z,12.10
2018-09-09T00:21:45.302Z,12.17
2018-09-09T00:24:14.787Z,12.20
2018-09-09T00:26:44.159Z,11.90
2018-09-09T00:29:13.501Z,11.60
2018-09-09T00:31:42.748Z,13.13
2018-09-09T00:34:11.986Z,12.67
2018-09-09T00:36:40.888Z,12.13
2018-09-09T00:39:10.240Z,12.43
2018-09-09T00:41:39.602Z,12.37
2018-09-09T00:44:08.780Z,12.43
2018-09-09T00:46:37.917Z,11.17
2018-09-09T00:49:12.584Z,12.43
2018-09-09T00:51:46.804Z,13.17
2018-09-09T00:54:15.992Z,12.00
2018-09-09T00:56:45.343Z,11.73
2018-09-09T00:59:14.704Z,12.73
2018-09-09T01:01:44.155Z,12.13
2018-09-09T01:04:13.446Z,12.23
2018-09-09T01:06:42.715Z,13.20
2018-09-09T01:09:12.430Z,13.20
2018-09-09T01:11:41.859Z,12.77
2018-09-09T01:14:11.116Z,13.50
2018-09-09T01:16:40.463Z,12.37
2018-09-09T01:19:09.649Z,13.53
2018-09-09T01:21:39.002Z,12.53
2018-09-09T01:24:08.211Z,12.60
2018-09-09T01:26:37.544Z,12.83
2018-09-09T01:29:06.940Z,13.00
2018-09-09T01:31:36.409Z,12.83
2018-09-09T01:34:05.611Z,12.80
2018-09-09T01:36:34.624Z,13.13
2018-09-09T01:39:04.635Z,12.73
2018-09-09T01:41:33.847Z,13.80
2018-09-09T01:44:03.154Z,13.37
2018-09-09T01:46:32.662Z,13.43
2018-09-09T01:49:01.689Z,13.07
2018-09-09T01:51:31.200Z,13.03
2018-09-09T01:54:00.197Z,12.60
2018-09-09T01:56:29.500Z,12.83
2018-09-09T01:58:58.748Z,12.87
2018-09-09T02:01:28.009Z,14.53
2018-09-09T02:03:56.999Z,14.27
2018-09-09T02:06:26.404Z,14.17
2018-09-09T02:08:55.562Z,13.70
2018-09-09T02:11:24.838Z,13.60
2018-09-09T02:13:54.342Z,13.07
2018-09-09T02:16:23.697Z,13.87
2018-09-09T02:18:52.655Z,13.57
2018-09-09T02:21:21.634Z,12.73
2018-09-09T02:23:51.043Z,13.77
2018-09-09T02:26:20.472Z,13.37
2018-09-09T02:28:49.889Z,13.00
2018-09-09T02:31:19.372Z,13.00
2018-09-09T02:33:48.827Z,12.50
2018-09-09T02:36:18.182Z,12.53
2018-09-09T02:38:47.391Z,12.60
2018-09-09T02:41:16.695Z,13.40
2018-09-09T02:43:45.941Z,13.20
2018-09-09T02:46:15.293Z,13.23
2018-09-09T02:48:44.403Z,13.00
2018-09-09T02:51:13.787Z,12.80
2018-09-09T02:53:43.159Z,12.50
2018-09-09T02:56:12.468Z,12.73
2018-09-09T02:58:41.975Z,12.10
2018-09-09T03:01:11.079Z,12.07
2018-09-09T03:03:40.152Z,13.37
2018-09-09T03:06:09.456Z,12.40
2018-09-09T03:08:38.803Z,12.47
2018-09-09T03:11:12.894Z,12.30
2018-09-09T03:13:42.907Z,12.47
2018-09-09T03:16:12.357Z,11.90
2018-09-09T03:18:42.335Z,12.10
2018-09-09T03:21:11.258Z,12.53
2018-09-09T03:23:40.648Z,11.50
2018-09-09T03:26:10.203Z,11.97
2018-09-09T03:28:39.426Z,11.73
2018-09-09T03:31:08.808Z,12.53
2018-09-09T03:33:38.150Z,11.50
2018-09-09T03:36:07.451Z,11.70
2018-09-09T03:38:36.705Z,12.40
2018-09-09T03:41:05.856Z,12.03
2018-09-09T03:43:35.092Z,11.80
2018-09-09T03:46:04.392Z,12.07
2018-09-09T03:48:33.843Z,12.47
2018-09-09T03:51:02.963Z,12.23
2018-09-09T03:53:31.979Z,11.90
2018-09-09T03:56:01.284Z,11.17
2018-09-09T03:58:30.341Z,12.20
2018-09-09T04:00:59.348Z,12.10
2018-09-09T04:03:28.727Z,11.83
2018-09-09T04:05:58.327Z,11.60
2018-09-09T04:08:27.837Z,11.70
2018-09-09T04:10:57.215Z,11.50
2018-09-09T04:13:26.411Z,11.13
2018-09-09T04:15:55.590Z,11.50
2018-09-09T04:18:24.859Z,11.30
2018-09-09T04:20:54.225Z,11.17
2018-09-09T04:23:23.532Z,10.80
2018-09-09T04:25:52.696Z,10.70
2018-09-09T04:28:22.067Z,11.37
2018-09-09T04:30:51.286Z,10.27
2018-09-09T04:33:20.670Z,10.80
2018-09-09T04:35:49.936Z,10.63
2018-09-09T04:38:19.140Z,11.30
2018-09-09T04:40:48.503Z,11.13
2018-09-09T04:43:17.963Z,11.20
2018-09-09T04:45:47.208Z,11.10
2018-09-09T04:48:16.231Z,10.47
2018-09-09T04:50:45.404Z,11.10
2018-09-09T04:53:14.687Z,10.87
2018-09-09T04:55:44.097Z,10.23
2018-09-09T04:58:13.386Z,10.63
2018-09-09T05:00:42.655Z,10.40
2018-09-09T05:03:11.908Z,10.20
2018-09-09T05:05:40.870Z,10.53
2018-09-09T05:08:10.085Z,10.03
2018-09-09T05:10:39.357Z,10.47
2018-09-09T05:13:08.460Z,10.27
2018-09-09T05:15:37.627Z,9.53
2018-09-09T05:18:06.798Z,9.53
2018-09-09T05:20:35.926Z,10.00
2018-09-09T05:23:05.216Z,10.40
2018-09-09T05:25:34.344Z,10.53
2018-09-09T05:28:03.654Z,9.87
2018-09-09T05:30:32.997Z,9.97
2018-09-09T05:33:01.955Z,9.93
2018-09-09T05:35:31.415Z,10.03
2018-09-09T05:38:00.426Z,10.53
2018-09-09T05:40:29.768Z,10.67
2018-09-09T05:42:59.040Z,10.87
2018-09-09T05:45:28.155Z,10.67
2018-09-09T05:47:57.533Z,10.10
2018-09-09T05:50:26.520Z,10.07
2018-09-09T05:52:55.541Z,10.77
2018-09-09T05:55:24.878Z,9.80
2018-09-09T05:57:54.294Z,10.40
2018-09-09T06:00:23.579Z,9.80
2018-09-09T06:02:52.917Z,10.00
2018-09-09T06:05:22.324Z,10.57
2018-09-09T06:07:51.214Z,9.80
2018-09-09T06:10:20.440Z,9.80
2018-09-09T06:12:49.748Z,9.70
2018-09-09T06:15:18.893Z,10.03
2018-09-09T06:17:48.164Z,10.70
2018-09-09T06:20:17.444Z,10.10
2018-09-09T06:22:46.646Z,9.27
2018-09-09T06:25:15.771Z,9.73
2018-09-09T06:27:44.936Z,9.43
2018-09-09T06:30:14.243Z,10.33
2018-09-09T06:32:43.585Z,9.30
2018-09-09T06:35:12.783Z,9.23
2018-09-09T06:37:42.108Z,8.97
2018-09-09T06:40:11.428Z,10.17
2018-09-09T06:42:40.394Z,10.00
2018-09-09T06:45:09.671Z,10.30
2018-09-09T06:47:39.020Z,10.17
2018-09-09T06:50:08.441Z,10.60
2018-09-09T06:52:37.683Z,9.60
2018-09-09T06:55:07.247Z,9.63
2018-09-09T06:57:36.521Z,9.33
2018-09-09T07:00:05.761Z,9.20
2018-09-09T07:02:35.120Z,9.57
2018-09-09T07:05:04.168Z,9.70
2018-09-09T07:07:33.390Z,10.23
2018-09-09T07:10:02.712Z,9.47
2018-09-09T07:12:31.920Z,9.73
2018-09-09T07:15:01.137Z,9.43
2018-09-09T07:17:30.302Z,9.43
2018-09-09T07:19:59.449Z,10.47
2018-09-09T07:22:28.693Z,9.80
2018-09-09T07:24:57.871Z,10.10
2018-09-09T07:27:27.088Z,9.83
2018-09-09T07:29:56.544Z,9.47
2018-09-09T07:32:25.784Z,9.83
2018-09-09T07:34:55.188Z,10.47
2018-09-09T07:37:24.406Z,9.80
2018-09-09T07:39:53.683Z,9.73
2018-09-09T07:42:23.044Z,9.40
2018-09-09T07:44:52.510Z,10.00
2018-09-09T07:47:21.477Z,9.80
2018-09-09T07:49:50.667Z,9.30
2018-09-09T07:52:19.942Z,8.60
2018-09-09T07:54:49.163Z,9.10
2018-09-09T07:57:18.526Z,8.93
2018-09-09T07:59:47.875Z,9.60
2018-09-09T08:02:17.222Z,8.63
2018-09-09T08:04:46.525Z,8.93
2018-09-09T08:07:16.026Z,9.13
2018-09-09T08:09:45.222Z,9.03
2018-09-09T08:12:14.725Z,9.33
2018-09-09T08:14:43.979Z,9.50
2018-09-09T08:17:13.267Z,8.87
2018-09-09T08:19:42.476Z,9.30
2018-09-09T08:22:11.500Z,9.50
2018-09-09T08:24:40.549Z,9.00
2018-09-09T08:27:09.854Z,9.23
2018-09-09T08:29:39.167Z,8.50
2018-09-09T08:32:08.439Z,8.70
2018-09-09T08:34:37.918Z,8.53
2018-09-09T08:37:07.204Z,8.13
2018-09-09T08:39:36.195Z,8.07
2018-09-09T08:42:05.114Z,8.50
2018-09-09T08:44:34.482Z,8.53
2018-09-09T08:47:03.836Z,8.90
2018-09-09T08:49:33.188Z,8.77
2018-09-09T08:52:02.618Z,8.73
2018-09-09T08:54:32.093Z,9.07
2018-09-09T08:57:01.470Z,8.17
2018-09-09T08:59:30.739Z,8.30
2018-09-09T09:01:59.943Z,8.50
2018-09-09T09:04:29.251Z,7.63
2018-09-09T09:06:58.464Z,8.80
2018-09-09T09:09:27.670Z,8.07
2018-09-09T09:11:57.031Z,8.33
2018-09-09T09:14:26.333Z,7.33
2018-09-09T09:16:55.291Z,8.23
2018-09-09T09:19:24.477Z,8.07
2018-09-09T09:21:53.679Z,8.37
2018-09-09T09:24:23.168Z,7.70
2018-09-09T09:26:52.516Z,7.80
2018-09-09T09:29:21.479Z,7.83
2018-09-09T09:31:50.526Z,7.53
2018-09-09T09:34:19.545Z,7.97
2018-09-09T09:36:48.765Z,8.13
2018-09-09T09:39:18.011Z,8.10
2018-09-09T09:41:47.283Z,7.67
2018-09-09T09:44:16.743Z,7.20
2018-09-09T09:46:46.113Z,7.90
2018-09-09T09:49:15.752Z,7.47
2018-09-09T09:51:45.044Z,7.10
2018-09-09T09:54:14.072Z,6.93
2018-09-09T09:56:43.129Z,7.40
2018-09-09T09:59:12.107Z,7.93
2018-09-09T10:01:41.317Z,7.27
2018-09-09T10:04:10.309Z,7.70
2018-09-09T10:06:39.500Z,7.97
2018-09-09T10:09:08.747Z,7.30
2018-09-09T10:11:37.967Z,6.93
2018-09-09T10:14:07.349Z,7.22
2018-09-09T10:16:36.606Z,7.05
2018-09-09T10:19:05.720Z,9.45
2018-09-09T10:21:34.534Z,6.80
2018-09-09T10:24:03.968Z,6.25
2018-09-09T10:26:33.361Z,6.97
2018-09-09T10:29:02.983Z,7.50
2018-09-09T10:31:32.503Z,7.20
2018-09-09T10:34:02.020Z,7.03
2018-09-09T10:36:31.209Z,7.22
2018-09-09T10:39:00.601Z,7.00
2018-09-09T10:41:29.728Z,7.00
2018-09-09T10:43:59.086Z,7.35
2018-09-09T10:46:28.010Z,7.22
2018-09-09T10:48:57.131Z,6.80
2018-09-09T10:51:26.263Z,6.78
2018-09-09T10:53:55.254Z,7.17
2018-09-09T10:56:24.619Z,6.78
2018-09-09T10:58:53.835Z,6.55
2018-09-09T11:01:22.947Z,6.37
2018-09-09T11:03:52.351Z,7.15
2018-09-09T11:06:21.650Z,7.03
2018-09-09T11:08:51.013Z,6.85
2018-09-09T11:11:20.232Z,6.78
2018-09-09T11:13:49.393Z,6.87
2018-09-09T11:16:18.738Z,6.62
2018-09-09T11:18:47.965Z,6.60
2018-09-09T11:21:17.460Z,6.50
2018-09-09T11:23:46.915Z,7.05
2018-09-09T11:26:16.219Z,6.72
2018-09-09T11:28:45.361Z,6.72
2018-09-09T11:31:14.830Z,6.92
2018-09-09T11:33:44.272Z,6.58
2018-09-09T11:36:14.685Z,6.75
2018-09-09T11:38:44.275Z,6.72
2018-09-09T11:41:13.548Z,6.72
2018-09-09T11:43:42.886Z,7.75
2018-09-09T11:46:12.079Z,7.60
2018-09-09T11:48:41.372Z,7.05
2018-09-09T11:51:10.613Z,7.30
2018-09-09T11:53:39.867Z,6.55
2018-09-09T11:56:09.091Z,6.12
2018-09-09T11:58:39.211Z,6.92
2018-09-09T12:01:08.184Z,6.87
2018-09-09T12:03:37.485Z,7.28
2018-09-09T12:06:06.823Z,7.60
2018-09-09T12:08:36.179Z,7.00
2018-09-09T12:11:05.404Z,6.25
2018-09-09T12:13:34.616Z,6.80
2018-09-09T12:16:03.888Z,6.95
2018-09-09T12:18:33.340Z,6.42
2018-09-09T12:21:02.603Z,6.83
2018-09-09T12:23:31.933Z,7.42
2018-09-09T12:26:01.129Z,6.95
2018-09-09T12:28:30.231Z,7.05
2018-09-09T12:30:59.237Z,6.70
2018-09-09T12:33:28.516Z,7.08
2018-09-09T12:35:57.819Z,7.22
2018-09-09T12:38:27.058Z,6.30
2018-09-09T12:40:56.412Z,7.03
2018-09-09T12:43:30.927Z,27.58
2018-09-09T12:46:04.954Z,18.20
2018-09-09T12:48:39.230Z,8.53
2018-09-09T12:51:09.526Z,7.03
2018-09-09T12:53:38.783Z,8.48
2018-09-09T12:56:08.123Z,6.97
2018-09-09T12:58:37.276Z,7.83
2018-09-09T13:01:06.984Z,7.50
2018-09-09T13:03:36.128Z,6.75
2018-09-09T13:06:05.590Z,6.62
2018-09-09T13:08:34.692Z,7.40
2018-09-09T13:11:03.957Z,6.75
2018-09-09T13:13:32.935Z,6.22
2018-09-09T13:16:02.134Z,5.80
2018-09-09T13:18:31.508Z,6.62
2018-09-09T13:21:00.436Z,6.72
2018-09-09T13:23:29.679Z,6.80
2018-09-09T13:25:58.902Z,6.87
2018-09-09T13:28:28.076Z,6.67
2018-09-09T13:30:57.388Z,7.15
2018-09-09T13:33:26.835Z,6.75
2018-09-09T13:35:56.396Z,6.83
2018-09-09T13:38:25.740Z,6.60
2018-09-09T13:40:54.611Z,6.90
2018-09-09T13:43:24.034Z,6.57
2018-09-09T13:45:53.160Z,6.60
2018-09-09T13:48:22.435Z,6.70
2018-09-09T13:50:51.628Z,6.50
2018-09-09T13:53:20.887Z,6.60
2018-09-09T13:55:49.991Z,7.07
2018-09-09T13:58:19.538Z,6.93
2018-09-09T14:00:48.872Z,6.57
2018-09-09T14:03:18.437Z,7.50
2018-09-09T14:05:47.763Z,7.07
2018-09-09T14:08:17.072Z,7.10
2018-09-09T14:10:46.259Z,7.07
2018-09-09T14:13:15.167Z,7.50
2018-09-09T14:15:44.572Z,6.57
2018-09-09T14:18:13.764Z,6.97
2018-09-09T14:20:42.767Z,7.43
2018-09-09T14:23:11.863Z,7.23
2018-09-09T14:25:41.194Z,7.10
2018-09-09T14:28:10.497Z,7.23
2018-09-09T14:30:39.776Z,6.70
2018-09-09T14:33:09.110Z,6.93
2018-09-09T14:35:38.656Z,6.93
2018-09-09T14:38:07.699Z,6.80
2018-09-09T14:40:37.149Z,7.73
2018-09-09T14:43:06.456Z,7.10
2018-09-09T14:45:35.857Z,8.17
2018-09-09T14:48:05.122Z,7.87
2018-09-09T14:50:34.490Z,9.30
2018-09-09T14:53:03.862Z,7.67
2018-09-09T14:55:33.115Z,7.30
2018-09-09T14:58:02.440Z,7.77
2018-09-09T15:00:31.792Z,8.30
2018-09-09T15:03:01.160Z,8.30
2018-09-09T15:05:30.454Z,8.80
2018-09-09T15:07:59.812Z,9.07
2018-09-09T15:10:29.087Z,8.20
2018-09-09T15:12:57.991Z,8.37
2018-09-09T15:15:27.231Z,8.70
2018-09-09T15:17:56.575Z,7.73
2018-09-09T15:20:25.689Z,7.77
2018-09-09T15:22:54.884Z,8.40
2018-09-09T15:25:24.497Z,7.53
2018-09-09T15:27:53.896Z,8.03
2018-09-09T15:30:23.086Z,8.33
2018-09-09T15:32:52.334Z,8.50
2018-09-09T15:35:21.727Z,8.13
2018-09-09T15:37:50.814Z,8.63
2018-09-09T15:40:19.881Z,8.70
2018-09-09T15:42:48.855Z,8.30
2018-09-09T15:45:18.230Z,8.07
2018-09-09T15:47:47.212Z,8.03
2018-09-09T15:50:16.592Z,7.80
2018-09-09T15:52:45.818Z,7.67
2018-09-09T15:55:15.087Z,7.57
2018-09-09T15:57:44.292Z,9.77
2018-09-09T16:00:13.836Z,9.27
2018-09-09T16:02:42.838Z,9.40
2018-09-09T16:05:12.282Z,9.30
2018-09-09T16:07:41.720Z,8.90
2018-09-09T16:10:11.075Z,8.20
2018-09-09T16:12:40.045Z,8.63
2018-09-09T16:15:09.207Z,8.93
2018-09-09T16:17:38.528Z,9.30
2018-09-09T16:20:08.361Z,8.87
2018-09-09T16:22:37.743Z,9.33
2018-09-09T16:25:07.091Z,8.60
2018-09-09T16:27:36.389Z,8.13
2018-09-09T16:30:06.421Z,8.43
2018-09-09T16:32:35.852Z,8.43
2018-09-09T16:35:05.076Z,8.33
2018-09-09T16:37:34.258Z,8.47
2018-09-09T16:40:03.452Z,8.20
2018-09-09T16:42:33.091Z,8.83
2018-09-09T16:45:02.702Z,8.43
2018-09-09T16:47:33.083Z,7.97
2018-09-09T16:50:02.431Z,8.53
2018-09-09T16:52:31.519Z,8.37
2018-09-09T16:55:00.920Z,7.73
2018-09-09T16:57:30.136Z,8.17
2018-09-09T16:59:59.389Z,8.13
2018-09-09T17:02:28.564Z,7.40
2018-09-09T17:04:57.927Z,7.90
2018-09-09T17:07:27.117Z,8.20
2018-09-09T17:09:56.563Z,9.37
2018-09-09T17:12:25.460Z,9.80
2018-09-09T17:14:54.738Z,9.93
2018-09-09T17:17:24.164Z,9.83
2018-09-09T17:19:53.103Z,9.30
2018-09-09T17:22:22.492Z,8.83
2018-09-09T17:24:51.566Z,8.97
2018-09-09T17:27:20.796Z,10.13
2018-09-09T17:29:49.780Z,9.63
2018-09-09T17:32:19.213Z,8.67
2018-09-09T17:34:48.592Z,9.87
2018-09-09T17:37:17.660Z,10.93
2018-09-09T17:39:47.571Z,9.20
2018-09-09T17:42:16.664Z,8.30
2018-09-09T17:44:46.135Z,8.97
2018-09-09T17:47:15.604Z,7.90
2018-09-09T17:49:44.985Z,8.70
2018-09-09T17:52:14.330Z,8.40
2018-09-09T17:54:43.357Z,8.17
2018-09-09T17:57:12.687Z,7.33
2018-09-09T17:59:42.063Z,8.37
2018-09-09T18:02:11.440Z,7.80
2018-09-09T18:04:40.852Z,8.20
2018-09-09T18:07:10.036Z,7.87
2018-09-09T18:09:39.377Z,8.03
2018-09-09T18:12:08.666Z,7.93
2018-09-09T18:14:37.739Z,8.03
2018-09-09T18:17:07.108Z,7.20
2018-09-09T18:19:36.273Z,7.93
2018-09-09T18:22:05.525Z,7.77
2018-09-09T18:24:35.367Z,7.40
2018-09-09T18:27:04.384Z,7.47
2018-09-09T18:29:33.927Z,7.57
2018-09-09T18:32:02.891Z,7.67
2018-09-09T18:34:32.019Z,7.70
2018-09-09T18:37:01.368Z,7.00
2018-09-09T18:39:30.671Z,7.07
2018-09-09T18:42:00.060Z,7.37
2018-09-09T18:44:29.555Z,7.67
2018-09-09T18:46:58.473Z,7.50
2018-09-09T18:49:27.915Z,6.87
2018-09-09T18:51:57.208Z,7.67
2018-09-09T18:54:26.560Z,8.13
2018-09-09T18:56:55.624Z,6.67
2018-09-09T18:59:24.932Z,7.23
2018-09-09T19:01:53.950Z,7.37
2018-09-09T19:04:22.905Z,7.13
2018-09-09T19:06:52.332Z,7.50
2018-09-09T19:09:21.588Z,7.10
2018-09-09T19:11:50.738Z,7.00
2018-09-09T19:14:20.542Z,7.17
2018-09-09T19:16:50.068Z,7.13
2018-09-09T19:19:19.352Z,7.30
2018-09-09T19:21:48.765Z,6.60
2018-09-09T19:24:18.146Z,7.70
2018-09-09T19:26:47.443Z,7.27
2018-09-09T19:29:16.648Z,7.00
2018-09-09T19:31:45.942Z,7.20
2018-09-09T19:34:15.309Z,7.30
2018-09-09T19:36:44.777Z,7.07
2018-09-09T19:39:14.132Z,6.87
2018-09-09T19:41:43.452Z,6.73
2018-09-09T19:44:12.589Z,6.67
2018-09-09T19:46:41.841Z,6.90
2018-09-09T19:49:11.253Z,7.30
2018-09-09T19:51:40.624Z,6.77
2018-09-09T19:54:10.138Z,6.83
2018-09-09T19:56:39.465Z,7.23
2018-09-09T19:59:08.566Z,7.10
2018-09-09T20:01:37.428Z,7.20
2018-09-09T20:04:06.528Z,7.43
2018-09-09T20:06:35.831Z,7.27
2018-09-09T20:09:06.104Z,7.13
2018-09-09T20:11:35.388Z,6.97
2018-09-09T20:14:04.966Z,6.77
2018-09-09T20:16:34.003Z,6.80
2018-09-09T20:19:03.050Z,6.90
2018-09-09T20:21:32.147Z,6.93
2018-09-09T20:24:01.479Z,6.67
2018-09-09T20:26:30.691Z,6.47
2018-09-09T20:28:59.716Z,7.00
2018-09-09T20:31:29.072Z,6.70
2018-09-09T20:33:58.024Z,6.97
2018-09-09T20:36:27.354Z,6.60
2018-09-09T20:38:56.321Z,6.83
2018-09-09T20:41:25.651Z,7.10
2018-09-09T20:43:55.026Z,6.97
2018-09-09T20:46:24.500Z,6.93
2018-09-09T20:48:54.003Z,6.70
2018-09-09T20:51:22.955Z,6.40
2018-09-09T20:53:52.235Z,6.20
2018-09-09T20:56:21.456Z,6.33
2018-09-09T20:58:50.986Z,6.63
2018-09-09T21:01:20.100Z,6.73
2018-09-09T21:03:49.388Z,6.57
2018-09-09T21:06:18.836Z,5.97
2018-09-09T21:08:48.035Z,6.33
2018-09-09T21:11:17.227Z,6.30
2018-09-09T21:13:46.476Z,6.13
2018-09-09T21:16:15.774Z,5.50
2018-09-09T21:18:45.048Z,5.80
2018-09-09T21:21:14.392Z,6.60
2018-09-09T21:23:43.830Z,5.90
2018-09-09T21:26:13.063Z,6.10
2018-09-09T21:28:42.457Z,6.13
2018-09-09T21:31:11.826Z,6.00
2018-09-09T21:33:41.136Z,5.70
2018-09-09T21:36:10.078Z,5.90
2018-09-09T21:38:39.407Z,5.50
2018-09-09T21:41:08.592Z,6.53
2018-09-09T21:43:38.024Z,5.97
2018-09-09T21:46:07.273Z,5.93
2018-09-09T21:48:36.515Z,6.47
2018-09-09T21:51:05.824Z,6.10
2018-09-09T21:53:35.030Z,5.83
2018-09-09T21:56:04.087Z,5.93
2018-09-09T21:58:33.324Z,6.43
2018-09-09T22:01:07.469Z,6.57
2018-09-09T22:03:36.850Z,5.80
2018-09-09T22:06:06.092Z,5.83
2018-09-09T22:08:35.373Z,6.20
2018-09-09T22:11:04.751Z,5.87
2018-09-09T22:13:34.070Z,6.53
2018-09-09T22:16:03.407Z,6.03
2018-09-09T22:18:32.939Z,6.40
2018-09-09T22:21:02.168Z,6.17
2018-09-09T22:23:31.405Z,6.43
2018-09-09T22:26:00.748Z,5.83
2018-09-09T22:28:29.863Z,6.67
2018-09-09T22:30:59.311Z,6.77
2018-09-09T22:33:28.707Z,6.40
2018-09-09T22:35:57.865Z,6.53
2018-09-09T22:38:27.184Z,6.90
2018-09-09T22:40:56.131Z,6.50
2018-09-09T22:43:25.348Z,6.83
2018-09-09T22:46:00.773Z,7.37
2018-09-09T22:48:30.074Z,7.40
2018-09-09T22:50:59.296Z,7.20
2018-09-09T22:53:28.556Z,7.03
2018-09-09T22:55:57.919Z,6.93
2018-09-09T22:58:27.390Z,6.60
2018-09-09T23:00:56.415Z,6.83
2018-09-09T23:03:25.797Z,6.80
2018-09-09T23:05:54.776Z,6.67
2018-09-09T23:08:23.948Z,7.07
2018-09-09T23:10:53.211Z,7.07
2018-09-09T23:13:22.519Z,7.27
2018-09-09T23:15:51.716Z,7.33
2018-09-09T23:18:20.930Z,7.23
2018-09-09T23:20:50.103Z,7.43
2018-09-09T23:23:19.113Z,7.57
2018-09-09T23:25:48.530Z,7.23
2018-09-09T23:28:17.716Z,7.30
2018-09-09T23:30:46.964Z,7.40
2018-09-09T23:33:16.417Z,7.53
2018-09-09T23:35:45.693Z,7.43
2018-09-09T23:38:14.707Z,8.00
2018-09-09T23:40:43.827Z,7.70
2018-09-09T23:43:13.174Z,7.60
2018-09-09T23:45:42.504Z,8.10
2018-09-09T23:48:11.921Z,7.73
2018-09-09T23:50:40.748Z,7.53
2018-09-09T23:53:09.840Z,7.63
2018-09-09T23:55:39.111Z,7.90
2018-09-09T23:58:08.323Z,7.57
